Decoded Metar for KSIF (REIDSVILLE in NC, USA) (IATA:SIF) | Meteo·Mobile Aviation Weather
aviador You're here:

KSIF Decoded Metar

REIDSVILLE in NC, USA
Report Time2019-11-16 01:15:00
UTC Time2019-11-16 01:41:45
Flight Rules vfr VFR
WindCalm
Visibility9999 m
Phenomena:N/A
Clouds:N/A
Expected CloudBase > 1,600 ft AGL from Temp-Dew spread
CeilingNone
Temp02°C (ISA -12)
Dew Point-2°C (75% RH)
AAT-0.3°C
QNH1022 hPa
Density Alt-951 ft
Elevation692 ft
Report Wrong Elevation
Raw Report
METAR KSIF 160115Z AUTO 00000KT 10SM CLR 02/M02 A3017 RMK AO2 T00181016=

Extra information for KSIF:More info

Metar Taf Metar & Taf Last 4 Metars F.Rules Stats Wind Profile Meteogram Temp Stats Airport Information Weather charts Add Link Nearby VenuesMetar ALERT Operation Metar Decoded Social comments

AIRNAV info for KSIF